Time;durP1;ratioP1;P1;durP2;ratioP2;P2;SDS_P1;SDS_P2;PMS_P1;PMS_P2;Temp;Humidity;BMP_temperature;BMP_pressure;BME280_temperature;BME280_humidity;BME280_pressure;Samples;Min_cycle;Max_cycle;Signal;HPM_P1;HPM_P2
2022/02/27 00:01:51;;;;;;;31.67;13.13;;;;;;;13.99;48.34;100771.19;5007864;28;20142;-75
2022/02/27 00:04:18;;;;;;;40.20;14.10;;;;;;;13.89;48.22;100754.47;5011602;28;20316;-73
2022/02/27 00:06:45;;;;;;;27.07;12.73;;;;;;;14.12;48.14;100792.13;5004389;28;20438;-75
2022/02/27 00:09:15;;;;;;;25.47;13.57;;;;;;;14.17;48.10;100800.47;5008625;28;20136;-77
2022/02/27 00:11:42;;;;;;;23.65;12.88;;;;;;;14.03;48.12;100781.84;5006675;28;20045;-76
2022/02/27 00:14:10;;;;;;;28.63;15.37;;;;;;;14.27;48.38;100824.81;5002836;28;20053;-76
2022/02/27 00:16:37;;;;;;;27.30;14.30;;;;;;;14.27;48.16;100822.00;5006073;28;20410;-74
2022/02/27 00:19:05;;;;;;;28.67;14.97;;;;;;;13.57;48.35;100721.41;5022158;28;20050;-76
2022/02/27 00:21:32;;;;;;;33.50;15.27;;;;;;;14.37;48.67;100838.72;5014355;28;20152;-75
2022/02/27 00:23:59;;;;;;;25.27;13.53;;;;;;;14.39;49.01;100839.28;5014545;28;20501;-76
2022/02/27 00:26:26;;;;;;;24.87;12.80;;;;;;;14.27;49.01;100816.38;5005455;28;20160;-78
2022/02/27 00:28:53;;;;;;;27.50;14.77;;;;;;;13.93;49.19;100761.16;5013788;28;20053;-76
2022/02/27 00:31:20;;;;;;;31.07;16.17;;;;;;;14.29;49.32;100822.53;5011974;28;20137;-76
2022/02/27 00:33:47;;;;;;;25.33;13.37;;;;;;;14.15;49.53;100810.31;5017050;28;20514;-75
2022/02/27 00:36:16;;;;;;;32.20;14.63;;;;;;;14.27;49.64;100822.00;5031509;28;20045;-76
2022/02/27 00:38:44;;;;;;;27.30;14.57;;;;;;;14.08;49.92;100795.81;5013446;28;20116;-75
2022/02/27 00:41:11;;;;;;;33.60;16.13;;;;;;;14.14;49.72;100805.84;5013449;28;20084;-74
2022/02/27 00:43:38;;;;;;;28.07;14.73;;;;;;;14.41;49.71;100842.63;5013384;28;20458;-75
2022/02/27 00:46:06;;;;;;;35.70;16.23;;;;;;;14.41;49.59;100851.03;4992214;28;20150;-77
2022/02/27 00:48:33;;;;;;;32.70;16.67;;;;;;;14.35;49.97;100835.38;5010855;28;20134;-76
2022/02/27 00:51:00;;;;;;;29.60;14.67;;;;;;;14.25;49.93;100824.25;5017729;28;20124;-75
2022/02/27 00:53:32;;;;;;;28.60;14.00;;;;;;;14.31;49.97;100839.91;5015415;28;20050;-75
2022/02/27 00:55:58;;;;;;;31.90;15.90;;;;;;;13.73;50.10;100739.75;5015669;28;20058;-76
2022/02/27 00:58:26;;;;;;;29.97;14.43;;;;;;;14.05;50.27;100802.03;5007802;28;20132;-76
2022/02/27 01:00:53;;;;;;;31.93;14.23;;;;;;;14.01;50.49;100775.69;5014118;28;20088;-75
2022/02/27 01:03:21;;;;;;;22.40;11.53;;;;;;;13.64;50.77;100723.88;4996248;28;20058;-74
2022/02/27 01:05:48;;;;;;;23.43;12.30;;;;;;;13.58;51.08;100722.25;5010873;28;20050;-76
2022/02/27 01:08:15;;;;;;;24.73;12.73;;;;;;;13.31;51.09;100653.53;5015050;28;20053;-75
2022/02/27 01:10:42;;;;;;;25.53;11.73;;;;;;;14.48;51.38;100839.44;5014378;28;20582;-76
2022/02/27 01:13:09;;;;;;;25.70;12.53;;;;;;;14.50;51.55;100841.97;5011993;28;20077;-75
2022/02/27 01:15:36;;;;;;;29.83;12.60;;;;;;;14.40;51.83;100826.06;5013726;28;20106;-75
2022/02/27 01:18:03;;;;;;;33.23;12.17;;;;;;;14.46;52.16;100845.38;5015917;28;20052;-76
2022/02/27 01:20:30;;;;;;;27.23;11.93;;;;;;;14.49;52.51;100840.28;5025578;28;20088;-74
2022/02/27 01:22:57;;;;;;;29.97;12.50;;;;;;;14.50;52.80;100847.59;5005936;28;20132;-75
2022/02/27 01:25:24;;;;;;;28.73;11.33;;;;;;;14.52;52.92;100845.31;5020582;28;20129;-75
2022/02/27 01:27:51;;;;;;;24.97;11.47;;;;;;;14.48;53.19;100833.00;5029006;28;20077;-75
2022/02/27 01:30:18;;;;;;;19.40;11.03;;;;;;;14.28;53.20;100806.81;5009235;28;20260;-75
2022/02/27 01:32:44;;;;;;;27.10;12.80;;;;;;;14.48;53.48;100827.38;5014130;28;20139;-75
2022/02/27 01:35:11;;;;;;;22.43;12.13;;;;;;;14.07;53.54;100758.47;5016692;28;20128;-75
2022/02/27 01:37:38;;;;;;;26.67;12.13;;;;;;;14.28;53.74;100789.94;5007704;28;20537;-76
2022/02/27 01:40:06;;;;;;;31.23;13.67;;;;;;;14.46;53.96;100820.09;5021847;28;20085;-76
2022/02/27 01:42:36;;;;;;;26.90;11.97;;;;;;;14.48;54.12;100828.19;5010737;28;20081;-76
2022/02/27 01:45:04;;;;;;;28.13;12.90;;;;;;;14.43;54.24;100817.88;5009453;28;20141;-75
2022/02/27 01:47:31;;;;;;;29.33;13.57;;;;;;;14.42;54.24;100820.97;5009248;28;20078;-75
2022/02/27 01:49:58;;;;;;;28.67;12.10;;;;;;;14.52;54.45;100836.91;5008065;28;20533;-75
2022/02/27 01:52:25;;;;;;;27.20;11.93;;;;;;;14.47;54.82;100837.78;5012911;28;20053;-75
2022/02/27 01:54:53;;;;;;;22.97;11.07;;;;;;;14.40;54.72;100826.91;5005136;28;20053;-75
2022/02/27 01:57:20;;;;;;;23.73;12.07;;;;;;;14.51;54.74;100843.66;4996228;28;20082;-76
2022/02/27 01:59:47;;;;;;;24.40;12.07;;;;;;;14.26;55.00;100803.47;5009680;28;20081;-76
2022/02/27 02:02:15;;;;;;;32.23;11.50;;;;;;;14.46;55.16;100831.31;5014647;28;20057;-76
2022/02/27 02:04:43;;;;;;;25.57;9.90;;;;;;;14.32;55.00;100810.69;4988002;28;20121;-76
2022/02/27 02:07:10;;;;;;;22.10;8.93;;;;;;;14.44;55.22;100827.97;5006264;28;20049;-76
2022/02/27 02:09:37;;;;;;;21.57;10.00;;;;;;;14.37;55.33;100829.47;5015222;28;20133;-76
2022/02/27 02:12:05;;;;;;;21.40;9.40;;;;;;;14.24;55.29;100808.53;5007010;28;20562;-76
2022/02/27 02:14:32;;;;;;;19.47;9.60;;;;;;;14.23;55.48;100826.53;5014067;28;20140;-75
2022/02/27 02:16:59;;;;;;;27.87;9.33;;;;;;;14.22;55.82;100831.34;5028628;28;20137;-77
2022/02/27 02:19:27;;;;;;;19.47;9.57;;;;;;;14.22;55.71;100831.34;5013258;28;20049;-76
2022/02/27 02:21:58;;;;;;;16.83;7.13;;;;;;;13.83;55.69;100754.81;5017923;28;20072;-76
2022/02/27 02:24:25;;;;;;;22.70;8.47;;;;;;;14.21;55.68;100812.78;5025875;28;20049;-75
2022/02/27 02:26:53;;;;;;;16.57;8.87;;;;;;;14.30;56.06;100815.78;4996094;28;20132;-77
2022/02/27 02:29:22;;;;;;;23.37;11.10;;;;;;;14.01;55.95;100792.53;5020830;28;20053;-75
2022/02/27 02:31:52;;;;;;;25.67;11.50;;;;;;;14.10;55.68;100801.97;5010686;28;20050;-76
2022/02/27 02:34:21;;;;;;;23.40;11.27;;;;;;;14.05;55.36;100802.03;5010779;28;20129;-76
2022/02/27 02:36:49;;;;;;;32.50;12.87;;;;;;;13.99;55.08;100804.06;5027523;28;20485;-77
2022/02/27 02:39:19;;;;;;;29.77;13.70;;;;;;;13.91;54.84;100796.28;5011248;28;20096;-76
2022/02/27 02:41:46;;;;;;;25.33;13.30;;;;;;;13.72;54.55;100762.53;5008694;28;20046;-76
2022/02/27 02:44:14;;;;;;;25.83;13.33;;;;;;;14.03;54.66;100809.91;5030143;28;20096;-76
2022/02/27 02:46:41;;;;;;;36.40;15.27;;;;;;;14.07;54.62;100819.41;5021616;28;20253;-76
2022/02/27 02:49:10;;;;;;;30.90;14.90;;;;;;;13.85;54.71;100783.44;5029958;28;20061;-75
2022/02/27 02:51:38;;;;;;;26.37;13.63;;;;;;;13.80;54.50;100764.66;5028127;28;20042;-74
2022/02/27 02:54:07;;;;;;;30.70;14.20;;;;;;;13.89;54.70;100787.34;5029431;28;20077;-75
2022/02/27 02:56:34;;;;;;;28.37;14.37;;;;;;;14.10;54.85;100838.50;5026570;28;20057;-76
2022/02/27 02:59:02;;;;;;;24.67;14.47;;;;;;;13.01;54.99;100649.84;5034148;28;20072;-76
2022/02/27 03:01:29;;;;;;;26.57;13.47;;;;;;;13.86;55.09;100783.13;5022045;28;20073;-75
2022/02/27 03:03:57;;;;;;;24.37;13.13;;;;;;;14.10;55.12;100824.44;5019804;28;20078;-76
2022/02/27 03:06:24;;;;;;;24.53;14.27;;;;;;;13.68;55.19;100753.88;5010562;28;20049;-75
2022/02/27 03:08:52;;;;;;;22.47;12.93;;;;;;;14.05;55.42;100808.50;5011365;28;20114;-76
2022/02/27 03:11:19;;;;;;;29.00;14.17;;;;;;;13.93;55.28;100797.66;5010828;28;20123;-76
2022/02/27 03:13:47;;;;;;;29.70;14.57;;;;;;;13.41;55.40;100714.31;5020174;28;20049;-76
2022/02/27 03:16:15;;;;;;;25.83;13.63;;;;;;;13.16;55.35;100668.53;5017884;28;20045;-75
2022/02/27 03:18:42;;;;;;;27.13;13.10;;;;;;;14.18;55.39;100835.84;5009684;28;20045;-75
2022/02/27 03:21:10;;;;;;;24.73;12.53;;;;;;;14.20;55.39;100824.31;5020394;28;20049;-76
2022/02/27 03:23:37;;;;;;;22.10;11.60;;;;;;;13.99;55.41;100778.78;5009403;28;20089;-76
2022/02/27 03:26:07;;;;;;;31.40;13.18;;;;;;;14.10;55.53;100811.22;5016882;28;20049;-75
2022/02/27 03:28:36;;;;;;;24.03;10.70;;;;;;;14.14;55.66;100809.50;5015329;28;20042;-76
2022/02/27 03:31:03;;;;;;;19.63;11.30;;;;;;;14.12;55.60;100810.91;5025589;28;20152;-76
2022/02/27 03:33:31;;;;;;;24.73;12.40;;;;;;;13.95;55.55;100786.97;5012353;28;20085;-73
2022/02/27 03:35:58;;;;;;;23.87;11.33;;;;;;;14.14;55.75;100817.91;5013332;28;20137;-76
2022/02/27 03:38:25;;;;;;;29.20;12.07;;;;;;;13.90;55.81;100777.75;5011792;28;20050;-75
2022/02/27 03:40:54;;;;;;;27.17;11.90;;;;;;;14.15;55.99;100818.75;4999040;28;20038;-75
2022/02/27 03:43:20;;;;;;;24.07;12.00;;;;;;;14.14;56.06;100822.72;5014517;28;20472;-76
2022/02/27 03:45:47;;;;;;;27.43;12.07;;;;;;;13.79;55.90;100757.41;5017007;28;20050;-75
2022/02/27 03:48:15;;;;;;;24.03;12.30;;;;;;;14.01;55.93;100781.28;5005803;28;20474;-74
2022/02/27 03:50:42;;;;;;;24.20;11.77;;;;;;;14.05;55.96;100793.59;5017707;28;20074;-76
2022/02/27 03:53:08;;;;;;;30.60;11.70;;;;;;;13.90;56.28;100789.00;5010593;28;20065;-75
2022/02/27 03:55:35;;;;;;;32.10;13.47;;;;;;;13.71;56.38;100798.19;5006486;28;20137;-76
2022/02/27 03:58:03;;;;;;;18.97;11.87;;;;;;;13.47;56.77;100786.06;5020480;28;20085;-75
2022/02/27 04:00:30;;;;;;;27.53;12.33;;;;;;;13.28;56.79;100785.94;5008003;28;20046;-76
2022/02/27 04:02:57;;;;;;;26.10;13.23;;;;;;;12.98;56.91;100756.13;5016899;28;20132;-75
2022/02/27 04:05:25;;;;;;;26.57;12.67;;;;;;;12.93;56.84;100776.63;5016766;28;20116;-75
2022/02/27 04:07:51;;;;;;;29.80;15.57;;;;;;;12.69;57.29;100765.31;5016389;28;20088;-74
2022/02/27 04:10:19;;;;;;;30.43;14.50;;;;;;;12.59;57.80;100770.13;5013979;28;20494;-76
2022/02/27 04:12:46;;;;;;;22.93;12.90;;;;;;;12.43;58.44;100763.75;5020440;28;20053;-76
2022/02/27 04:15:13;;;;;;;26.93;15.07;;;;;;;12.17;58.73;100732.22;5009117;28;20093;-75
2022/02/27 04:17:40;;;;;;;28.47;14.67;;;;;;;12.13;58.62;100722.75;5015054;28;20133;-77
2022/02/27 04:20:08;;;;;;;35.23;16.13;;;;;;;12.30;58.56;100754.00;5012079;28;20481;-76
2022/02/27 04:22:35;;;;;;;33.57;15.00;;;;;;;12.22;58.83;100751.81;5010006;28;20107;-76
2022/02/27 04:25:03;;;;;;;23.03;13.47;;;;;;;12.25;58.29;100760.50;5019587;28;20115;-75
2022/02/27 04:27:30;;;;;;;35.37;15.90;;;;;;;12.25;58.20;100770.84;5014762;28;20121;-75
2022/02/27 04:29:57;;;;;;;24.00;14.20;;;;;;;11.83;58.34;100696.53;5015171;28;20128;-75
2022/02/27 04:32:25;;;;;;;24.50;13.73;;;;;;;12.16;58.33;100767.78;5016002;28;20045;-75
2022/02/27 04:34:52;;;;;;;30.67;16.40;;;;;;;12.19;58.21;100777.59;5018611;28;20069;-76
2022/02/27 04:37:19;;;;;;;30.83;14.70;;;;;;;12.17;58.19;100777.03;5009009;28;20132;-76
2022/02/27 04:39:46;;;;;;;31.47;14.43;;;;;;;12.18;58.06;100778.72;5013258;28;20049;-76
2022/02/27 04:42:15;;;;;;;26.77;14.23;;;;;;;12.06;57.95;100768.66;5013505;28;20041;-76
2022/02/27 04:44:42;;;;;;;27.87;15.33;;;;;;;12.21;57.85;100789.34;5010721;28;20081;-76
2022/02/27 04:47:09;;;;;;;30.70;15.80;;;;;;;12.18;57.72;100782.34;5020189;28;20085;-75
2022/02/27 04:49:37;;;;;;;31.57;14.47;;;;;;;11.99;57.70;100767.31;4999811;28;20092;-75
2022/02/27 04:52:05;;;;;;;28.03;14.13;;;;;;;12.13;57.88;100790.75;5019518;28;20085;-77
2022/02/27 04:54:35;;;;;;;27.50;14.90;;;;;;;12.11;57.76;100786.59;5012578;28;20410;-76
2022/02/27 04:57:02;;;;;;;26.35;13.98;;;;;;;11.83;57.71;100741.31;5010004;28;20137;-75
2022/02/27 04:59:29;;;;;;;23.17;14.03;;;;;;;11.77;57.81;100748.03;5014818;28;20085;-76
2022/02/27 05:01:56;;;;;;;25.53;13.37;;;;;;;12.05;57.92;100805.34;5008846;28;20134;-77
2022/02/27 05:04:23;;;;;;;16.20;9.87;;;;;;;11.84;57.86;100782.19;5017874;28;20057;-76
2022/02/27 05:06:50;;;;;;;28.40;12.93;;;;;;;11.87;57.97;100804.00;5017736;28;20589;-76
2022/02/27 05:09:19;;;;;;;25.90;12.90;;;;;;;11.82;58.25;100817.97;5015515;28;20046;-76
2022/02/27 05:11:49;;;;;;;24.00;14.07;;;;;;;11.77;58.03;100806.78;5014458;28;20137;-76
2022/02/27 05:14:16;;;;;;;24.58;12.50;;;;;;;11.74;58.02;100816.59;5011834;28;20598;-75
2022/02/27 05:16:45;;;;;;;25.57;11.37;;;;;;;11.67;57.98;100827.22;5013330;28;20133;-75
2022/02/27 05:19:13;;;;;;;25.97;13.60;;;;;;;11.47;58.02;100793.69;5013511;28;20128;-77
2022/02/27 05:21:41;;;;;;;21.30;12.07;;;;;;;11.42;58.14;100790.88;4997903;28;20069;-76
2022/02/27 05:24:10;;;;;;;31.07;14.30;;;;;;;11.38;58.13;100793.38;5015501;28;20145;-75
2022/02/27 05:26:37;;;;;;;31.50;14.67;;;;;;;11.56;58.40;100820.81;5013991;28;20084;-75
2022/02/27 05:29:04;;;;;;;27.40;14.83;;;;;;;11.41;58.53;100792.84;5013230;28;20077;-75
2022/02/27 05:31:31;;;;;;;28.20;16.13;;;;;;;11.59;58.38;100828.63;5010998;28;20596;-74
2022/02/27 05:33:58;;;;;;;28.57;14.40;;;;;;;11.59;58.68;100825.84;5014840;28;20141;-76
2022/02/27 05:36:27;;;;;;;28.00;16.10;;;;;;;11.71;58.42;100824.69;5010587;28;20108;-75
2022/02/27 05:38:54;;;;;;;33.43;15.20;;;;;;;11.65;57.60;100792.25;5010308;28;20072;-76
2022/02/27 05:41:21;;;;;;;27.87;14.30;;;;;;;12.01;57.30;100830.28;5019926;28;20056;-76
2022/02/27 05:43:54;;;;;;;31.27;15.00;;;;;;;12.04;56.77;100831.69;5024426;28;20104;-76
2022/02/27 05:46:21;;;;;;;31.10;15.63;;;;;;;12.11;57.02;100839.78;5006930;28;20467;-76
2022/02/27 05:48:48;;;;;;;31.77;15.67;;;;;;;12.13;56.52;100843.94;5024921;28;20073;-74
2022/02/27 05:51:15;;;;;;;30.83;15.27;;;;;;;12.13;56.56;100835.56;5022219;28;20030;-74
2022/02/27 05:53:42;;;;;;;33.43;14.43;;;;;;;12.04;56.33;100826.91;5022379;28;20483;-77
2022/02/27 05:56:09;;;;;;;27.07;14.77;;;;;;;12.08;56.38;100842.00;5006258;28;20150;-75
2022/02/27 05:58:36;;;;;;;34.17;15.73;;;;;;;11.93;56.38;100825.28;5021257;28;20088;-76
2022/02/27 06:01:03;;;;;;;28.13;16.03;;;;;;;12.02;56.64;100840.34;5011717;28;20160;-76
2022/02/27 06:03:30;;;;;;;32.83;15.23;;;;;;;11.86;56.81;100827.50;5007740;28;20088;-75
2022/02/27 06:05:59;;;;;;;37.10;16.52;;;;;;;11.98;56.40;100856.03;4998960;28;20054;-76
2022/02/27 06:08:26;;;;;;;36.67;16.73;;;;;;;11.79;57.06;100824.94;5009319;28;20056;-75
2022/02/27 06:10:55;;;;;;;30.83;16.40;;;;;;;11.89;56.59;100845.69;5008738;28;20053;-75
2022/02/27 06:13:23;;;;;;;31.00;15.60;;;;;;;11.77;56.62;100823.59;5014152;28;20092;-75
2022/02/27 06:15:50;;;;;;;28.57;15.33;;;;;;;11.76;56.94;100833.06;5010715;28;20124;-76
2022/02/27 06:18:16;;;;;;;30.37;16.27;;;;;;;11.90;57.01;100848.22;5025118;28;20210;-75
2022/02/27 06:20:43;;;;;;;28.23;15.70;;;;;;;11.93;56.95;100858.84;5012738;28;20053;-75
2022/02/27 06:23:11;;;;;;;31.27;15.23;;;;;;;11.92;56.73;100853.53;5019170;28;20060;-75
2022/02/27 06:25:38;;;;;;;29.67;16.13;;;;;;;11.85;56.64;100851.00;5015339;28;20081;-76
2022/02/27 06:28:05;;;;;;;28.37;14.80;;;;;;;11.88;56.65;100849.63;5010056;28;20077;-76
2022/02/27 06:30:32;;;;;;;27.23;15.53;;;;;;;11.78;56.55;100842.03;5010431;28;20138;-76
2022/02/27 06:33:02;;;;;;;32.78;17.33;;;;;;;11.75;56.49;100845.41;4991232;28;20041;-76
2022/02/27 06:35:29;;;;;;;29.73;16.23;;;;;;;11.46;56.83;100798.44;5028160;28;20468;-76
2022/02/27 06:37:56;;;;;;;32.67;15.23;;;;;;;11.66;56.66;100839.53;5008099;28;20088;-75
2022/02/27 06:40:23;;;;;;;27.77;15.07;;;;;;;11.52;56.58;100811.31;4996236;28;20557;-75
2022/02/27 06:42:50;;;;;;;29.37;15.83;;;;;;;11.60;56.58;100816.31;5010849;28;20494;-75
2022/02/27 06:45:17;;;;;;;28.17;16.27;;;;;;;11.84;56.47;100852.13;5027566;28;20049;-75
2022/02/27 06:47:45;;;;;;;30.87;14.97;;;;;;;11.71;56.60;100841.50;5005828;28;20443;-75
2022/02/27 06:50:12;;;;;;;25.77;13.30;;;;;;;11.50;57.39;100849.88;5005365;28;20181;-74
2022/02/27 06:52:40;;;;;;;27.50;14.53;;;;;;;11.33;57.54;100854.91;5010943;28;20128;-76
2022/02/27 06:55:09;;;;;;;23.77;12.40;;;;;;;11.10;57.98;100840.34;5005267;28;20045;-75
2022/02/27 06:57:36;;;;;;;27.97;12.57;;;;;;;10.98;58.22;100841.75;5009921;28;20107;-75
2022/02/27 07:00:06;;;;;;;28.37;12.90;;;;;;;10.87;58.78;100846.44;5014062;28;20089;-76
2022/02/27 07:02:33;;;;;;;28.77;14.07;;;;;;;10.68;59.24;100829.34;5015914;28;20544;-76
2022/02/27 07:05:00;;;;;;;22.73;12.70;;;;;;;10.55;59.38;100827.91;4994321;28;20151;-76
2022/02/27 07:07:27;;;;;;;27.83;13.70;;;;;;;10.52;59.75;100834.03;4994498;28;20085;-76
2022/02/27 07:10:00;;;;;;;25.87;14.50;;;;;;;10.55;60.16;100857.78;5006891;28;20183;-76
2022/02/27 07:12:31;;;;;;;22.33;10.90;;;;;;;10.21;60.75;100833.88;5014099;28;20048;-74
2022/02/27 07:14:58;;;;;;;29.97;14.37;;;;;;;10.31;60.46;100846.25;5025818;28;20447;-75
2022/02/27 07:17:26;;;;;;;15.80;7.60;;;;;;;10.33;60.62;100852.41;5015428;28;20050;-75
2022/02/27 07:19:54;;;;;;;27.50;14.03;;;;;;;10.42;60.53;100867.50;5030278;28;20045;-75
2022/02/27 07:22:21;;;;;;;32.97;16.00;;;;;;;10.27;60.97;100853.47;5004727;28;20047;-76
2022/02/27 07:24:49;;;;;;;30.17;17.13;;;;;;;10.25;61.00;100858.44;5007675;28;20085;-76
2022/02/27 07:27:19;;;;;;;25.53;15.73;;;;;;;10.34;60.90;100868.03;5009493;28;20053;-74
2022/02/27 07:29:46;;;;;;;22.20;11.73;;;;;;;10.47;60.99;100892.66;5027690;28;20474;-75
2022/02/27 07:32:14;;;;;;;18.03;11.83;;;;;;;10.46;61.16;100896.59;5011004;28;20503;-76
2022/02/27 07:34:42;;;;;;;27.03;13.47;;;;;;;10.51;61.17;100906.94;5009190;28;20072;-75
2022/02/27 07:37:13;;;;;;;25.63;13.60;;;;;;;10.45;61.19;100894.88;5010483;28;20963;-75
2022/02/27 07:39:41;;;;;;;11.53;6.50;;;;;;;10.27;61.33;100867.44;5012711;28;20650;-76
2022/02/27 07:42:07;;;;;;;26.57;13.50;;;;;;;10.51;61.25;100916.13;5013191;28;20054;-77
2022/02/27 07:44:34;;;;;;;33.30;15.17;;;;;;;10.23;61.05;100869.91;5013670;28;20084;-76
2022/02/27 07:47:02;;;;;;;24.70;14.00;;;;;;;10.38;61.34;100885.91;5005280;28;20058;-76
2022/02/27 07:49:29;;;;;;;24.63;13.83;;;;;;;10.42;61.05;100898.22;5009746;28;20100;-78
2022/02/27 07:51:56;;;;;;;22.13;10.73;;;;;;;10.58;61.31;100933.47;4999180;28;20046;-77
2022/02/27 07:54:25;;;;;;;30.10;15.20;;;;;;;10.66;61.03;100938.53;5007968;28;20056;-76
2022/02/27 07:56:53;;;;;;;25.97;14.70;;;;;;;10.70;60.98;100940.78;5012440;28;20081;-77
2022/02/27 07:59:20;;;;;;;31.60;13.77;;;;;;;10.70;60.73;100941.66;5013626;28;20092;-83
2022/02/27 08:01:47;;;;;;;25.70;15.00;;;;;;;10.65;60.90;100939.66;5006494;28;20124;-79
2022/02/27 08:04:15;;;;;;;27.03;13.10;;;;;;;10.63;61.26;100941.03;5010615;28;20108;-80
2022/02/27 08:06:42;;;;;;;17.80;10.23;;;;;;;10.57;61.40;100937.41;5017586;28;20117;-79
2022/02/27 08:09:10;;;;;;;35.77;14.70;;;;;;;10.61;61.51;100938.53;5011890;28;20132;-79
2022/02/27 08:11:37;;;;;;;21.27;11.50;;;;;;;10.64;61.55;100943.59;5014391;28;20049;-78
2022/02/27 08:14:09;;;;;;;24.03;14.03;;;;;;;10.69;61.40;100945.53;5019964;28;20489;-77
2022/02/27 08:16:36;;;;;;;22.57;12.97;;;;;;;10.79;61.15;100947.56;5011169;28;20133;-78
2022/02/27 08:19:04;;;;;;;26.80;12.30;;;;;;;10.94;61.27;100953.22;5009448;28;20116;-77
2022/02/27 08:21:32;;;;;;;28.27;14.82;;;;;;;10.91;60.70;100895.09;5005154;28;20111;-78
2022/02/27 08:23:59;;;;;;;22.30;12.47;;;;;;;11.57;60.14;100937.16;5009815;28;20093;-79
2022/02/27 08:26:27;;;;;;;32.37;15.00;;;;;;;11.88;59.57;100934.41;4993430;28;20136;-84
2022/02/27 08:28:54;;;;;;;25.03;15.73;;;;;;;12.32;58.89;100954.25;5007942;28;20124;-83
2022/02/27 08:31:20;;;;;;;27.63;15.10;;;;;;;12.72;58.50;100949.66;5021295;28;20077;-84
2022/02/27 08:33:48;;;;;;;29.60;16.53;;;;;;;12.98;57.76;100919.56;5023963;28;20052;-82
2022/02/27 08:36:17;;;;;;;32.27;15.73;;;;;;;13.58;57.07;100956.00;5012276;28;20077;-81
2022/02/27 08:38:47;;;;;;;27.20;16.20;;;;;;;13.95;56.51;100961.06;5013712;28;20133;-80
2022/02/27 08:41:14;;;;;;;;;;;;;;;14.34;56.84;100957.31;5010122;28;20077;-81
2022/02/27 08:43:41;;;;;;;37.70;16.23;;;;;;;14.39;55.95;100898.28;5009701;28;19961;-77
2022/02/27 08:46:08;;;;;;;27.97;16.03;;;;;;;15.10;55.38;100961.25;5012897;28;20359;-80
2022/02/27 08:48:35;;;;;;;32.53;16.80;;;;;;;15.25;54.13;100934.91;5014396;28;20061;-81
2022/02/27 08:51:02;;;;;;;34.20;20.97;;;;;;;15.61;53.62;100963.38;5019161;28;20030;-77
2022/02/27 08:53:29;;;;;;;34.30;19.87;;;;;;;15.70;53.01;100943.03;5033913;28;20034;-76
2022/02/27 08:55:56;;;;;;;32.37;16.83;;;;;;;16.00;52.49;100945.34;5022970;28;20077;-77
2022/02/27 08:58:23;;;;;;;32.20;18.23;;;;;;;16.47;52.25;100959.44;5017550;28;20069;-79
2022/02/27 09:00:50;;;;;;;29.97;16.70;;;;;;;16.84;51.39;100964.09;5024148;28;20136;-84
2022/02/27 09:03:17;;;;;;;27.58;15.45;;;;;;;17.14;51.06;100956.16;5018888;28;20062;-86
2022/02/27 09:05:44;;;;;;;37.10;17.08;;;;;;;17.43;50.31;100959.44;5020985;28;20100;-86
2022/02/27 09:08:11;;;;;;;26.02;17.52;;;;;;;17.67;49.56;100970.47;5004513;28;20046;-75
2022/02/27 09:10:38;;;;;;;26.35;16.10;;;;;;;17.43;49.01;100964.25;5014918;28;20137;-85
2022/02/27 09:13:05;;;;;;;27.42;16.17;;;;;;;17.56;49.05;100983.16;5029026;28;20074;-80
2022/02/27 09:15:32;;;;;;;26.02;16.73;;;;;;;17.63;48.74;100983.56;5014967;28;20081;-88
2022/02/27 09:18:00;;;;;;;31.60;17.55;;;;;;;18.06;48.42;100969.00;5017733;28;20046;-91
2022/02/27 09:20:27;;;;;;;31.00;18.08;;;;;;;18.57;47.43;101001.63;5015704;28;20469;-88
2022/02/27 09:22:54;;;;;;;30.85;17.90;;;;;;;18.98;46.70;100997.69;5017399;28;20443;-85
2022/02/27 09:25:21;;;;;;;32.38;17.33;;;;;;;19.18;46.38;100994.28;5012565;28;20104;-86
2022/02/27 09:28:10;;;;;;;27.70;15.88;;;;;;;19.51;45.55;100996.69;5013233;28;20050;-84
2022/02/27 09:30:38;;;;;;;27.48;16.33;;;;;;;19.54;44.79;100984.69;5011929;28;20110;-84
2022/02/27 09:33:05;;;;;;;32.88;16.27;;;;;;;19.58;44.21;100979.19;5011851;28;20069;-84
2022/02/27 09:35:32;;;;;;;32.55;15.95;;;;;;;19.54;44.40;100989.53;5015573;28;20104;-82
2022/02/27 09:38:01;;;;;;;25.67;14.20;;;;;;;19.62;44.09;100980.19;5017412;28;20132;-83
2022/02/27 09:40:28;;;;;;;24.03;13.43;;;;;;;19.95;43.95;101005.28;5024491;28;20532;-84
2022/02/27 09:42:56;;;;;;;23.90;14.73;;;;;;;19.72;43.63;100950.75;5007993;28;20092;-84
2022/02/27 09:45:24;;;;;;;27.58;15.18;;;;;;;20.27;43.36;101007.63;5011132;28;20129;-86
2022/02/27 09:47:53;;;;;;;22.70;13.43;;;;;;;20.52;43.05;101003.09;5019473;28;20045;-84
2022/02/27 09:50:22;;;;;;;26.38;14.13;;;;;;;20.61;42.69;100996.56;5024845;28;20050;-83
2022/02/27 09:52:49;;;;;;;26.08;12.98;;;;;;;20.55;42.55;101021.44;5004976;28;20125;-83
2022/02/27 09:55:18;;;;;;;21.60;13.65;;;;;;;20.53;42.66;101010.41;5004632;28;20140;-84
2022/02/27 09:57:46;;;;;;;22.40;12.43;;;;;;;20.99;42.18;101019.28;5014888;28;20132;-87
2022/02/27 10:00:16;;;;;;;26.00;13.77;;;;;;;21.33;42.13;101024.00;5010629;28;20085;-87
2022/02/27 10:03:07;;;;;;;19.20;12.27;;;;;;;21.64;41.94;101022.84;5012691;28;20085;-84
2022/02/27 10:05:38;;;;;;;20.33;12.27;;;;;;;22.12;41.08;101010.09;5011981;28;20379;-84
2022/02/27 10:08:09;;;;;;;20.38;11.38;;;;;;;22.85;40.07;101018.94;5009534;28;20050;-84
2022/02/27 10:10:41;;;;;;;17.13;11.50;;;;;;;23.09;40.12;101011.66;5010781;28;20046;-84
2022/02/27 10:13:07;;;;;;;22.77;12.05;;;;;;;23.49;39.09;101005.28;5015712;28;20506;-85
2022/02/27 10:15:35;;;;;;;26.85;12.00;;;;;;;23.89;38.95;101017.56;5009984;28;20502;-83
2022/02/27 10:18:15;;;;;;;18.83;11.30;;;;;;;24.07;38.70;101021.00;5011487;28;20578;-84
2022/02/27 10:20:44;;;;;;;23.42;11.60;;;;;;;23.83;38.29;100981.94;5015297;28;20045;-88
2022/02/27 10:23:25;;;;;;;15.82;10.75;;;;;;;24.25;38.03;100989.31;5018549;28;20046;-83
2022/02/27 10:25:52;;;;;;;16.83;10.65;;;;;;;24.80;37.00;101017.00;5030402;28;20532;-82
2022/02/27 10:28:20;;;;;;;16.33;9.75;;;;;;;25.24;36.84;101031.25;5013629;28;20073;-81
2022/02/27 10:30:50;;;;;;;14.30;8.68;;;;;;;25.74;36.25;101032.50;5014899;28;20976;-81
2022/02/27 10:33:21;;;;;;;10.10;5.13;;;;;;;25.68;36.13;100996.81;5008988;28;20097;-80
2022/02/27 10:35:52;;;;;;;12.30;4.13;;;;;;;26.02;35.71;101025.81;5005260;28;20081;-81
2022/02/27 10:41:39;;;;;;;11.82;5.57;;;;;;;26.16;34.88;101042.47;5036995;28;20050;-83
2022/02/27 10:44:12;;;;;;;11.98;4.80;;;;;;;26.22;34.28;101024.63;5033887;28;20057;-82
2022/02/27 10:46:41;;;;;;;9.85;6.25;;;;;;;26.40;34.05;101013.53;5034004;28;20045;-83
2022/02/27 10:49:07;;;;;;;9.77;5.38;;;;;;;26.68;33.38;101024.75;5049402;28;20030;-81
2022/02/27 10:51:34;;;;;;;13.90;6.40;;;;;;;27.16;32.33;101050.25;5034014;28;20034;-81
2022/02/27 10:54:02;;;;;;;14.07;6.70;;;;;;;27.25;32.61;101052.84;5047998;28;20050;-82
2022/02/27 10:56:33;;;;;;;16.05;6.45;;;;;;;27.21;32.52;101049.94;5031752;28;20077;-82
2022/02/27 10:59:12;;;;;;;12.48;5.78;;;;;;;27.21;32.16;101044.19;5029207;28;20041;-81
2022/02/27 11:01:40;;;;;;;;;;;;;;;26.89;34.15;101055.03;5043614;28;20033;-82
2022/02/27 11:04:07;;;;;;;7.75;3.47;;;;;;;27.42;31.78;101055.22;5052555;28;19905;-80
2022/02/27 11:06:34;;;;;;;9.32;3.53;;;;;;;27.10;31.75;101018.16;5050323;28;20053;-81
2022/02/27 11:09:01;;;;;;;8.18;4.30;;;;;;;27.59;31.14;101050.97;5057995;28;20034;-80
2022/02/27 11:11:29;;;;;;;12.30;4.20;;;;;;;27.88;30.37;101038.78;5039537;28;20033;-82
2022/02/27 11:13:58;;;;;;;10.18;3.65;;;;;;;27.89;30.35;101030.97;5018807;28;20049;-81
2022/02/27 11:16:25;;;;;;;6.97;3.58;;;;;;;27.95;30.57;101049.53;5010724;28;20054;-82
2022/02/27 11:18:52;;;;;;;9.25;3.67;;;;;;;27.97;30.22;101055.72;5035528;28;20029;-80